Time;durP1;ratioP1;P1;durP2;ratioP2;P2;SDS_P1;SDS_P2;PMS_P1;PMS_P2;Temp;Humidity;BMP_temperature;BMP_pressure;BME280_temperature;BME280_humidity;BME280_pressure;Samples;Min_cycle;Max_cycle;Signal;HPM_P1;HPM_P2
2023/04/12 00:00:51;;;;;;;9.52;2.47;;;;;;;12.03;100.00;100319.19;5060465;28;20082;-75
2023/04/12 00:03:19;;;;;;;3.75;1.55;;;;;;;11.96;100.00;100314.53;5059651;28;20056;-75
2023/04/12 00:05:53;;;;;;;4.35;1.17;;;;;;;11.95;100.00;100312.16;5062636;28;20127;-77
2023/04/12 00:08:31;;;;;;;5.20;1.20;;;;;;;11.95;100.00;100315.69;5063336;28;20578;-75
2023/04/12 00:10:59;;;;;;;4.40;1.38;;;;;;;11.93;100.00;100309.81;5055684;28;20135;-76
2023/04/12 00:13:25;;;;;;;6.25;1.92;;;;;;;11.95;100.00;100312.94;5063234;28;20135;-75
2023/04/12 00:15:52;;;;;;;3.03;1.73;;;;;;;11.91;100.00;100298.34;5059998;28;20049;-77
2023/04/12 00:18:18;;;;;;;14.00;2.88;;;;;;;11.94;100.00;100294.75;5064099;28;20048;-76
2023/04/12 00:20:45;;;;;;;7.03;2.13;;;;;;;11.93;100.00;100276.53;5062320;28;20083;-75
2023/04/12 00:23:12;;;;;;;11.02;2.45;;;;;;;11.85;100.00;100286.13;5060795;28;20045;-78
2023/04/12 00:25:38;;;;;;;8.13;2.13;;;;;;;11.84;100.00;100284.56;5064221;28;20516;-75
2023/04/12 00:28:05;;;;;;;13.55;2.80;;;;;;;11.89;100.00;100286.09;5059996;28;20049;-76
2023/04/12 00:30:31;;;;;;;4.85;1.17;;;;;;;11.85;100.00;100280.59;5065595;28;20040;-77
2023/04/12 00:32:58;;;;;;;11.27;2.35;;;;;;;11.85;100.00;100291.69;5062298;28;20044;-76
2023/04/12 00:35:25;;;;;;;9.18;1.60;;;;;;;11.90;100.00;100276.56;5060143;28;20048;-75
2023/04/12 00:37:51;;;;;;;1.80;1.10;;;;;;;11.87;100.00;100277.41;5061444;28;20041;-76
2023/04/12 00:40:18;;;;;;;5.22;1.80;;;;;;;11.91;100.00;100267.06;5048948;28;20431;-76
2023/04/12 00:42:45;;;;;;;7.30;1.02;;;;;;;11.84;100.00;100251.31;5057642;28;20059;-75
2023/04/12 00:45:12;;;;;;;2.40;0.98;;;;;;;11.82;100.00;100259.28;5063053;28;20055;-74
2023/04/12 00:47:42;;;;;;;2.70;0.95;;;;;;;11.87;100.00;100258.00;5062283;28;20045;-75
2023/04/12 00:50:09;;;;;;;10.25;2.00;;;;;;;11.87;100.00;100252.44;5060461;28;20948;-75
2023/04/12 00:52:38;;;;;;;7.57;1.73;;;;;;;11.79;100.00;100254.56;5057681;28;20052;-77
2023/04/12 00:55:08;;;;;;;7.97;1.98;;;;;;;11.80;100.00;100256.13;5059546;28;20053;-76
2023/04/12 00:57:38;;;;;;;2.92;1.10;;;;;;;11.88;100.00;100251.28;5056874;28;20079;-75
2023/04/12 01:00:16;;;;;;;0.93;0.70;;;;;;;11.82;100.00;100239.88;5060601;28;20234;-75
2023/04/12 01:02:45;;;;;;;3.28;0.95;;;;;;;11.76;100.00;100226.88;5058147;28;20067;-77
2023/04/12 01:05:22;;;;;;;7.70;2.03;;;;;;;11.83;100.00;100224.00;5064052;28;20049;-76
2023/04/12 01:08:09;;;;;;;1.08;0.70;;;;;;;11.77;100.00;100228.44;5053225;28;20040;-77
2023/04/12 01:10:54;;;;;;;4.90;1.35;;;;;;;11.75;100.00;100219.78;5058528;28;20076;-72
2023/04/12 01:13:26;;;;;;;6.00;2.08;;;;;;;11.62;100.00;100213.22;5053962;28;20052;-75
2023/04/12 01:15:58;;;;;;;6.25;2.00;;;;;;;11.66;100.00;100205.63;5055095;28;20045;-75
2023/04/12 01:18:29;;;;;;;3.83;1.25;;;;;;;11.47;100.00;100209.81;5062763;28;20057;-76
2023/04/12 01:21:19;;;;;;;5.32;1.17;;;;;;;11.49;100.00;100196.34;5059357;28;20430;-76
2023/04/12 01:23:57;;;;;;;6.18;1.40;;;;;;;11.43;100.00;100192.44;5059636;28;20048;-78
2023/04/12 01:26:33;;;;;;;5.85;1.38;;;;;;;11.32;100.00;100186.28;5062071;28;20041;-74
2023/04/12 01:29:08;;;;;;;6.57;1.77;;;;;;;11.53;100.00;100176.88;5058777;28;20080;-76
2023/04/12 01:31:38;;;;;;;3.97;1.50;;;;;;;11.43;100.00;100161.19;5053618;28;20055;-73
2023/04/12 01:34:07;;;;;;;3.50;1.33;;;;;;;11.32;100.00;100153.03;5063370;28;20049;-75
2023/04/12 01:36:36;;;;;;;9.48;1.73;;;;;;;11.36;100.00;100161.28;5063323;28;20044;-75
2023/04/12 01:39:03;;;;;;;8.55;2.00;;;;;;;11.37;100.00;100154.56;5057194;28;20049;-76
2023/04/12 01:41:31;;;;;;;6.15;1.63;;;;;;;11.31;100.00;100147.91;5057695;28;20113;-78
2023/04/12 01:43:58;;;;;;;4.40;1.52;;;;;;;11.29;100.00;100142.00;5063732;28;20049;-75
2023/04/12 01:46:25;;;;;;;3.80;1.33;;;;;;;11.24;100.00;100136.94;5057318;28;20127;-74
2023/04/12 01:48:53;;;;;;;4.28;1.23;;;;;;;11.25;100.00;100130.19;5051145;28;20048;-73
2023/04/12 01:51:27;;;;;;;10.38;2.08;;;;;;;11.20;100.00;100128.66;5061492;28;20049;-76
2023/04/12 01:53:59;;;;;;;10.80;1.97;;;;;;;11.16;100.00;100127.13;5061732;28;20570;-78
2023/04/12 01:56:30;;;;;;;6.35;1.88;;;;;;;11.27;100.00;100130.56;5067916;28;20412;-75
2023/04/12 01:58:58;;;;;;;3.42;1.10;;;;;;;11.14;100.00;100112.94;5056405;28;20052;-75
2023/04/12 02:01:25;;;;;;;8.52;1.85;;;;;;;11.13;100.00;100106.59;5051872;28;20044;-78
2023/04/12 02:03:52;;;;;;;6.88;1.23;;;;;;;11.09;100.00;100100.31;5066198;28;20045;-75
2023/04/12 02:06:22;;;;;;;7.93;1.55;;;;;;;11.06;100.00;100100.34;5059994;28;20507;-73
2023/04/12 02:08:48;;;;;;;9.57;2.28;;;;;;;11.14;100.00;100085.25;5062225;28;20044;-75
2023/04/12 02:11:15;;;;;;;9.23;2.60;;;;;;;11.20;100.00;100075.28;5066373;28;20164;-76
2023/04/12 02:13:41;;;;;;;10.05;1.80;;;;;;;11.13;100.00;100078.91;5060132;28;20064;-74
2023/04/12 02:16:12;;;;;;;4.53;0.90;;;;;;;11.10;100.00;100079.72;5059060;28;20041;-74
2023/04/12 02:18:40;;;;;;;6.05;1.30;;;;;;;11.14;100.00;100066.63;5065037;28;20402;-75
2023/04/12 02:21:07;;;;;;;10.13;1.63;;;;;;;11.05;100.00;100057.28;5067603;28;20499;-73
2023/04/12 02:23:33;;;;;;;6.70;1.73;;;;;;;11.15;100.00;100056.34;5064485;28;20056;-77
2023/04/12 02:25:59;;;;;;;8.88;2.05;;;;;;;11.11;100.00;100053.63;5060830;28;20044;-75
2023/04/12 02:28:26;;;;;;;8.07;1.85;;;;;;;11.02;100.00;100044.25;5059379;28;20054;-75
2023/04/12 02:30:52;;;;;;;10.23;2.25;;;;;;;11.06;100.00;100034.72;5066081;28;20044;-75
2023/04/12 02:33:20;;;;;;;1.67;0.80;;;;;;;10.94;100.00;100037.25;5058874;28;20049;-74
2023/04/12 02:35:47;;;;;;;10.13;1.42;;;;;;;11.00;100.00;100019.00;5055674;28;20045;-75
2023/04/12 02:38:13;;;;;;;2.20;1.02;;;;;;;10.91;100.00;100021.47;5061463;28;20044;-76
2023/04/12 02:40:41;;;;;;;6.85;2.03;;;;;;;11.00;100.00;99999.63;5065352;28;20596;-76
2023/04/12 02:43:08;;;;;;;2.20;1.38;;;;;;;10.85;100.00;100001.00;5066234;28;20056;-76
2023/04/12 02:45:35;;;;;;;7.00;1.85;;;;;;;10.95;100.00;99995.31;5056832;28;20048;-75
2023/04/12 02:48:01;;;;;;;5.70;1.60;;;;;;;10.88;100.00;100000.16;5058802;28;20411;-73
2023/04/12 02:50:28;;;;;;;2.50;0.80;;;;;;;10.86;100.00;99974.91;5066256;28;20049;-75
2023/04/12 02:53:00;;;;;;;9.32;2.10;;;;;;;10.92;100.00;99978.75;5067310;28;20411;-75
2023/04/12 02:55:26;;;;;;;8.20;2.08;;;;;;;10.87;100.00;99970.94;5068039;28;20044;-75
2023/04/12 02:57:53;;;;;;;4.40;1.48;;;;;;;10.74;100.00;99967.16;5064663;28;20059;-76
2023/04/12 03:00:20;;;;;;;6.60;1.40;;;;;;;10.82;100.00;99952.03;5060465;28;20052;-77
2023/04/12 03:02:48;;;;;;;8.75;2.17;;;;;;;10.85;100.00;99951.97;5064235;28;20075;-74
2023/04/12 03:05:16;;;;;;;0.55;0.55;;;;;;;10.76;100.00;99960.00;5063235;28;20072;-74
2023/04/12 03:07:43;;;;;;;5.78;2.05;;;;;;;10.80;100.00;99940.59;5055992;28;20132;-75
2023/04/12 03:10:13;;;;;;;2.83;1.13;;;;;;;10.63;100.00;99933.34;5063451;28;20725;-75
2023/04/12 03:12:39;;;;;;;7.47;1.98;;;;;;;10.67;100.00;99917.47;5062254;28;20060;-76
2023/04/12 03:15:06;;;;;;;5.10;2.17;;;;;;;10.61;100.00;99919.91;5062901;28;20506;-73
2023/04/12 03:17:33;;;;;;;3.28;1.48;;;;;;;10.54;100.00;99914.47;5056625;28;20043;-77
2023/04/12 03:20:09;;;;;;;6.57;2.33;;;;;;;10.61;100.00;99902.53;5061534;28;20055;-74
2023/04/12 03:22:36;;;;;;;10.15;2.55;;;;;;;10.57;100.00;99890.72;5058134;28;20052;-75
2023/04/12 03:25:04;;;;;;;5.10;1.30;;;;;;;10.54;100.00;99898.66;5066047;28;20056;-73
2023/04/12 03:27:30;;;;;;;6.38;1.48;;;;;;;10.43;100.00;99892.50;5065425;28;20134;-76
2023/04/12 03:29:57;;;;;;;7.15;1.73;;;;;;;10.52;100.00;99874.63;5061229;28;20063;-74
2023/04/12 03:32:24;;;;;;;10.85;2.03;;;;;;;10.54;100.00;99865.47;5065076;28;20059;-76
2023/04/12 03:34:51;;;;;;;12.90;2.75;;;;;;;10.56;100.00;99864.28;5059835;28;20110;-75
2023/04/12 03:37:18;;;;;;;3.47;1.42;;;;;;;10.49;100.00;99860.41;5062903;28;20053;-76
2023/04/12 03:39:46;;;;;;;6.47;1.23;;;;;;;10.49;100.00;99862.38;5066065;28;20056;-74
2023/04/12 03:42:14;;;;;;;10.85;1.92;;;;;;;10.46;100.00;99838.31;5058843;28;20051;-77
2023/04/12 03:44:55;;;;;;;6.75;1.83;;;;;;;10.46;100.00;99847.41;5057293;28;20041;-73
2023/04/12 03:47:22;;;;;;;1.35;1.00;;;;;;;10.45;100.00;99832.03;5059153;28;20056;-76
2023/04/12 03:49:48;;;;;;;6.15;1.48;;;;;;;10.47;100.00;99826.84;5066461;28;20395;-72
2023/04/12 03:52:34;;;;;;;3.58;1.70;;;;;;;10.46;100.00;99818.97;5055353;28;20139;-77
2023/04/12 03:55:01;;;;;;;8.45;1.98;;;;;;;10.49;100.00;99815.38;5056350;28;20525;-72
2023/04/12 03:57:27;;;;;;;8.05;1.80;;;;;;;10.46;100.00;99814.22;5063524;28;20044;-73
2023/04/12 03:59:54;;;;;;;7.32;1.70;;;;;;;10.47;100.00;99807.50;5058476;28;20047;-76
2023/04/12 04:02:20;;;;;;;8.73;2.15;;;;;;;10.49;100.00;99784.94;5063185;28;20048;-76
2023/04/12 04:04:47;;;;;;;3.33;0.82;;;;;;;10.48;100.00;99786.94;5057346;28;20123;-74
2023/04/12 04:07:14;;;;;;;3.03;0.77;;;;;;;10.42;100.00;99782.28;5058601;28;20922;-73
2023/04/12 04:09:41;;;;;;;5.07;1.10;;;;;;;10.45;100.00;99779.47;5058855;28;20425;-75
2023/04/12 04:12:08;;;;;;;3.97;1.33;;;;;;;10.48;100.00;99775.09;5058088;28;20052;-76
2023/04/12 04:14:35;;;;;;;6.18;1.42;;;;;;;10.52;100.00;99773.03;5058227;28;20083;-75
2023/04/12 04:17:02;;;;;;;7.55;2.05;;;;;;;10.50;100.00;99758.88;5057506;28;20124;-74
2023/04/12 04:19:28;;;;;;;3.90;1.15;;;;;;;10.46;100.00;99761.69;5063062;28;20515;-73
2023/04/12 04:21:55;;;;;;;7.43;2.03;;;;;;;10.48;100.00;99751.00;5061037;28;20091;-73
2023/04/12 04:24:24;;;;;;;8.80;2.20;;;;;;;10.50;100.00;99751.34;5062954;28;20131;-72
2023/04/12 04:26:53;;;;;;;5.45;1.83;;;;;;;10.52;100.00;99737.09;5064045;28;20139;-77
2023/04/12 04:29:19;;;;;;;5.20;1.85;;;;;;;10.40;100.00;99729.41;5063816;28;20044;-76
2023/04/12 04:31:47;;;;;;;5.28;1.52;;;;;;;10.52;100.00;99728.03;5058879;28;20461;-72
2023/04/12 04:34:15;;;;;;;9.63;1.80;;;;;;;10.52;100.00;99730.81;5062062;28;20063;-75
2023/04/12 04:36:42;;;;;;;6.05;1.80;;;;;;;10.52;100.00;99725.28;5060737;28;20517;-74
2023/04/12 04:39:09;;;;;;;8.75;2.40;;;;;;;10.52;100.00;99714.22;5061372;28;20041;-73
2023/04/12 04:41:38;;;;;;;4.32;1.15;;;;;;;10.41;100.00;99712.41;5064516;28;20056;-74
2023/04/12 04:44:08;;;;;;;5.78;1.77;;;;;;;10.49;100.00;99711.06;5065548;28;20048;-74
2023/04/12 04:46:38;;;;;;;3.28;1.25;;;;;;;10.45;100.00;99710.34;5062385;28;20056;-73
2023/04/12 04:49:05;;;;;;;4.95;1.20;;;;;;;10.49;100.00;99702.78;5066033;28;20131;-74
2023/04/12 04:51:35;;;;;;;6.82;1.67;;;;;;;10.54;100.00;99710.56;5057899;28;20040;-75
2023/04/12 04:54:02;;;;;;;6.72;1.88;;;;;;;10.50;100.00;99704.31;5061189;28;20048;-73
2023/04/12 04:56:28;;;;;;;7.47;1.42;;;;;;;10.46;100.00;99703.59;5066024;28;20060;-73
2023/04/12 04:58:55;;;;;;;5.65;2.03;;;;;;;10.46;100.00;99695.31;5069061;28;20047;-75
2023/04/12 05:01:26;;;;;;;10.65;2.80;;;;;;;10.47;100.00;99696.88;5062168;28;20115;-72
2023/04/12 05:03:54;;;;;;;7.20;1.83;;;;;;;10.44;100.00;99697.69;5068723;28;20075;-77
2023/04/12 05:06:21;;;;;;;3.35;1.25;;;;;;;10.39;100.00;99691.88;5063394;28;20048;-71
2023/04/12 05:08:48;;;;;;;8.95;1.95;;;;;;;10.42;100.00;99680.78;5062176;28;20037;-74
2023/04/12 05:11:14;;;;;;;7.63;2.10;;;;;;;10.47;100.00;99679.50;5070085;28;20664;-74
2023/04/12 05:13:41;;;;;;;0.65;0.60;;;;;;;10.34;100.00;99675.78;5069660;28;20131;-74
2023/04/12 05:16:08;;;;;;;8.32;2.17;;;;;;;10.37;100.00;99664.66;5059272;28;20056;-73
2023/04/12 05:18:34;;;;;;;6.85;1.25;;;;;;;10.29;100.00;99665.97;5060451;28;20101;-76
2023/04/12 05:21:02;;;;;;;4.50;1.13;;;;;;;10.27;100.00;99668.38;5063611;28;20051;-75
2023/04/12 05:23:30;;;;;;;5.10;1.70;;;;;;;10.28;100.00;99669.16;5063657;28;20534;-74
2023/04/12 05:25:56;;;;;;;3.88;1.25;;;;;;;10.21;100.00;99664.53;5059239;28;20500;-73
2023/04/12 05:28:22;;;;;;;7.03;2.35;;;;;;;10.21;100.00;99661.78;5059803;28;20041;-75
2023/04/12 05:30:49;;;;;;;1.95;1.02;;;;;;;10.12;100.00;99666.25;5062181;28;20410;-74
2023/04/12 05:33:16;;;;;;;5.50;1.83;;;;;;;10.04;100.00;99664.78;5066489;28;20056;-72
2023/04/12 05:35:43;;;;;;;1.63;0.77;;;;;;;10.02;100.00;99656.13;5062452;28;20442;-75
2023/04/12 05:38:09;;;;;;;11.07;2.40;;;;;;;10.01;100.00;99636.00;5066809;28;20547;-74
2023/04/12 05:40:36;;;;;;;1.65;0.90;;;;;;;9.93;100.00;99648.34;5061541;28;20078;-72
2023/04/12 05:43:02;;;;;;;3.10;1.25;;;;;;;9.87;100.00;99644.53;5066276;28;20048;-73
2023/04/12 05:45:29;;;;;;;6.50;2.22;;;;;;;9.85;100.00;99635.84;5061285;28;20859;-75
2023/04/12 05:47:55;;;;;;;7.95;2.42;;;;;;;9.89;100.00;99630.28;5067720;28;20052;-73
2023/04/12 05:50:22;;;;;;;7.68;2.10;;;;;;;9.80;100.00;99628.06;5063926;28;20048;-73
2023/04/12 05:52:50;;;;;;;4.55;1.80;;;;;;;9.82;100.00;99619.34;5064230;28;20473;-73
2023/04/12 05:55:17;;;;;;;6.25;2.55;;;;;;;9.77;100.00;99623.38;5064170;28;20119;-72
2023/04/12 05:57:45;;;;;;;8.38;2.08;;;;;;;9.78;100.00;99619.41;5065288;28;20083;-75
2023/04/12 06:00:13;;;;;;;6.05;2.30;;;;;;;9.77;100.00;99608.75;5058320;28;20048;-74
2023/04/12 06:02:39;;;;;;;5.00;2.30;;;;;;;9.77;100.00;99614.28;5060597;28;20131;-71
2023/04/12 06:05:07;;;;;;;8.88;2.50;;;;;;;9.69;100.00;99607.31;5064236;28;20049;-74
2023/04/12 06:07:34;;;;;;;6.07;2.70;;;;;;;9.66;100.00;99597.09;5067218;28;20044;-74
2023/04/12 06:10:00;;;;;;;8.82;2.90;;;;;;;9.70;100.00;99590.34;5067606;28;20052;-75
2023/04/12 06:12:27;;;;;;;1.92;1.08;;;;;;;9.72;100.00;99595.44;5059524;28;20072;-72
2023/04/12 06:14:54;;;;;;;11.82;2.55;;;;;;;9.78;100.00;99590.97;5069451;28;20522;-76
2023/04/12 06:17:21;;;;;;;7.38;1.92;;;;;;;9.74;100.00;99596.56;5059837;28;20059;-75
2023/04/12 06:19:47;;;;;;;2.75;1.10;;;;;;;9.68;100.00;99578.13;5059122;28;20052;-74
2023/04/12 06:22:14;;;;;;;1.63;1.00;;;;;;;9.68;100.00;99589.16;5065019;28;20049;-72
2023/04/12 06:24:41;;;;;;;4.07;1.73;;;;;;;9.72;100.00;99585.16;5060678;28;20051;-74
2023/04/12 06:27:08;;;;;;;5.15;2.05;;;;;;;9.81;100.00;99568.84;5067271;28;20859;-72
2023/04/12 06:29:34;;;;;;;4.25;1.65;;;;;;;9.74;100.00;99557.13;5064891;28;20525;-75
2023/04/12 06:32:01;;;;;;;6.25;1.35;;;;;;;9.81;100.00;99571.59;5063254;28;20052;-76
2023/04/12 06:34:27;;;;;;;7.03;1.70;;;;;;;9.82;100.00;99562.09;5064275;28;20045;-76
2023/04/12 06:36:54;;;;;;;3.13;1.00;;;;;;;9.79;100.00;99559.41;5063681;28;20044;-76
2023/04/12 06:39:20;;;;;;;4.60;1.80;;;;;;;9.81;100.00;99546.75;5066078;28;20101;-76
2023/04/12 06:41:49;;;;;;;2.38;1.08;;;;;;;9.72;100.00;99557.53;5067042;28;20055;-76
2023/04/12 06:44:15;;;;;;;2.70;1.08;;;;;;;9.82;100.00;99547.53;5062044;28;20056;-77
2023/04/12 06:46:42;;;;;;;5.57;2.10;;;;;;;9.77;100.00;99532.22;5064463;28;20044;-73
2023/04/12 06:49:09;;;;;;;5.50;2.35;;;;;;;9.83;100.00;99543.56;5066117;28;20491;-74
2023/04/12 06:51:36;;;;;;;4.97;1.85;;;;;;;9.90;100.00;99537.91;5058270;28;20136;-74
2023/04/12 06:54:02;;;;;;;3.47;1.48;;;;;;;9.88;100.00;99532.03;5061690;28;20498;-73
2023/04/12 06:56:29;;;;;;;3.53;1.55;;;;;;;9.89;100.00;99526.06;5066601;28;20071;-74
2023/04/12 06:58:55;;;;;;;4.10;1.80;;;;;;;9.93;100.00;99518.50;5063898;28;20131;-75
2023/04/12 07:01:22;;;;;;;4.60;1.92;;;;;;;9.94;100.00;99514.56;5058785;28;20056;-74
2023/04/12 07:03:49;;;;;;;6.75;2.35;;;;;;;9.93;100.00;99504.69;5063696;28;20041;-74
2023/04/12 07:06:16;;;;;;;8.20;2.22;;;;;;;9.98;100.00;99508.94;5067315;28;20056;-74
2023/04/12 07:08:51;;;;;;;3.08;1.42;;;;;;;9.97;100.00;99502.66;5068197;28;20045;-75
2023/04/12 07:11:18;;;;;;;4.35;1.08;;;;;;;9.97;100.00;99505.44;5064501;28;20044;-74
2023/04/12 07:13:48;;;;;;;1.83;1.17;;;;;;;9.93;100.00;99501.91;5061540;28;20040;-75
2023/04/12 07:16:15;;;;;;;6.72;2.10;;;;;;;10.03;100.00;99489.13;5058229;28;20040;-74
2023/04/12 07:18:41;;;;;;;4.07;1.63;;;;;;;9.96;100.00;99487.25;5063913;28;20045;-76
2023/04/12 07:21:08;;;;;;;2.72;1.42;;;;;;;10.04;100.00;99487.91;5058163;28;20045;-74
2023/04/12 07:23:34;;;;;;;4.75;2.28;;;;;;;10.13;100.00;99485.44;5068295;28;20040;-74
2023/04/12 07:26:01;;;;;;;7.15;1.90;;;;;;;10.14;100.00;99492.50;5060609;28;20056;-72
2023/04/12 07:28:28;;;;;;;7.10;2.00;;;;;;;10.17;100.00;99481.38;5067681;28;20053;-73
2023/04/12 07:30:54;;;;;;;5.18;1.80;;;;;;;10.16;100.00;99473.53;5065921;28;20561;-73
2023/04/12 07:33:21;;;;;;;10.07;1.95;;;;;;;10.22;100.00;99483.66;5068323;28;20479;-73
2023/04/12 07:35:48;;;;;;;3.03;1.33;;;;;;;10.15;100.00;99472.72;5062184;28;20044;-77
2023/04/12 07:38:14;;;;;;;2.40;0.60;;;;;;;10.20;100.00;99474.22;5055135;28;20083;-73
2023/04/12 07:40:42;;;;;;;2.30;1.33;;;;;;;10.21;100.00;99459.19;5066381;28;20086;-73
2023/04/12 07:43:09;;;;;;;3.00;1.80;;;;;;;10.30;100.00;99457.41;5063764;28;20609;-72
2023/04/12 07:45:36;;;;;;;5.82;1.65;;;;;;;10.30;100.00;99456.66;5062324;28;20052;-75
2023/04/12 07:48:03;;;;;;;4.10;1.65;;;;;;;10.41;100.00;99452.47;5063432;28;20044;-77
2023/04/12 07:50:30;;;;;;;4.13;1.63;;;;;;;10.45;100.00;99447.66;5058372;28;20700;-75
2023/04/12 07:53:27;;;;;;;7.10;1.90;;;;;;;10.44;100.00;99448.06;5062922;28;20155;-75
2023/04/12 07:55:55;;;;;;;3.47;1.70;;;;;;;10.51;100.00;99439.63;5063255;28;20621;-78
2023/04/12 07:58:22;;;;;;;5.90;1.60;;;;;;;10.49;100.00;99437.28;5064721;28;20131;-76
2023/04/12 08:00:49;;;;;;;1.35;0.85;;;;;;;10.44;100.00;99428.72;5059961;28;20056;-75
2023/04/12 08:03:17;;;;;;;2.55;1.45;;;;;;;10.51;100.00;99423.03;5066136;28;20044;-75
2023/04/12 08:05:45;;;;;;;4.80;1.38;;;;;;;10.54;100.00;99439.53;5056362;28;20048;-77
2023/04/12 08:08:13;;;;;;;2.95;1.63;;;;;;;10.59;100.00;99438.25;5061669;28;20040;-74
2023/04/12 08:10:39;;;;;;;0.47;0.47;;;;;;;10.55;100.00;99440.31;5057629;28;20490;-74
2023/04/12 08:13:06;;;;;;;3.65;1.55;;;;;;;10.59;100.00;99443.03;5064094;28;20047;-77
2023/04/12 08:15:32;;;;;;;2.53;0.77;;;;;;;10.57;100.00;99437.94;5065817;28;20049;-75
2023/04/12 08:18:00;;;;;;;6.47;1.02;;;;;;;10.53;100.00;99457.34;5063132;28;20129;-78
2023/04/12 08:20:27;;;;;;;2.83;0.57;;;;;;;10.47;100.00;99456.28;5063861;28;20521;-74
2023/04/12 08:22:53;;;;;;;7.18;1.50;;;;;;;10.50;100.00;99451.91;5064168;28;20052;-73
2023/04/12 08:25:21;;;;;;;0.45;0.30;;;;;;;10.45;100.00;99458.72;5067446;28;20047;-73
2023/04/12 08:27:49;;;;;;;5.25;1.63;;;;;;;10.46;100.00;99457.50;5055740;28;20052;-74
2023/04/12 08:30:16;;;;;;;2.20;0.93;;;;;;;10.46;100.00;99451.19;5063999;28;20043;-74
2023/04/12 08:32:43;;;;;;;0.50;0.50;;;;;;;10.43;100.00;99458.34;5062164;28;20044;-76
2023/04/12 08:35:10;;;;;;;6.53;1.52;;;;;;;10.54;100.00;99460.91;5071370;28;20041;-75
2023/04/12 08:37:37;;;;;;;1.83;1.42;;;;;;;10.53;100.00;99443.53;5062830;28;20049;-74
2023/04/12 08:40:06;;;;;;;0.70;0.65;;;;;;;10.57;100.00;99432.41;5066802;28;20450;-73
2023/04/12 08:42:37;;;;;;;2.20;1.40;;;;;;;10.68;100.00;99427.41;5062151;28;20864;-74
2023/04/12 08:45:05;;;;;;;4.15;1.80;;;;;;;10.69;100.00;99419.91;5068759;28;20475;-75
2023/04/12 08:47:33;;;;;;;1.55;0.98;;;;;;;10.76;100.00;99412.19;5070641;28;20068;-75
2023/04/12 08:50:07;;;;;;;1.42;0.85;;;;;;;10.83;100.00;99419.56;5071602;28;20048;-74
2023/04/12 08:52:35;;;;;;;3.72;1.55;;;;;;;10.90;100.00;99419.41;5059930;28;20041;-75
2023/04/12 08:55:03;;;;;;;2.03;1.10;;;;;;;10.96;100.00;99421.22;5071156;28;20041;-75
2023/04/12 08:57:31;;;;;;;3.20;1.17;;;;;;;11.03;100.00;99409.97;5070796;28;20040;-75
2023/04/12 08:59:59;;;;;;;0.73;0.73;;;;;;;11.00;100.00;99418.38;5066810;28;20123;-74
2023/04/12 09:02:27;;;;;;;2.95;1.60;;;;;;;11.08;100.00;99422.53;5070188;28;20053;-75
2023/04/12 09:04:54;;;;;;;1.80;0.88;;;;;;;11.02;100.00;99418.72;5067911;28;20083;-77
2023/04/12 09:07:22;;;;;;;2.53;1.38;;;;;;;11.08;100.00;99411.47;5068953;28;20495;-73
2023/04/12 09:09:49;;;;;;;1.20;0.77;;;;;;;11.04;100.00;99416.31;5070729;28;20036;-77
2023/04/12 09:12:18;;;;;;;1.95;0.90;;;;;;;11.06;100.00;99408.34;5064490;28;20140;-77
2023/04/12 09:14:45;;;;;;;1.27;0.95;;;;;;;11.01;100.00;99406.09;5063881;28;20413;-75
2023/04/12 09:17:26;;;;;;;1.77;0.82;;;;;;;11.03;100.00;99398.16;5062349;28;20045;-77
2023/04/12 09:19:56;;;;;;;4.05;0.95;;;;;;;11.07;100.00;99401.63;5054530;28;20066;-77
2023/04/12 09:22:36;;;;;;;1.13;0.75;;;;;;;11.05;100.00;99404.03;5058728;28;20045;-75
2023/04/12 09:25:03;;;;;;;1.60;1.17;;;;;;;11.04;100.00;99405.25;5070910;28;20040;-74
2023/04/12 09:27:45;;;;;;;1.42;0.90;;;;;;;10.96;100.00;99393.56;5068434;28;20110;-75
2023/04/12 09:30:12;;;;;;;1.83;1.10;;;;;;;11.01;100.00;99401.34;5065104;28;20059;-74
2023/04/12 09:32:39;;;;;;;6.15;1.48;;;;;;;10.93;100.00;99408.25;5064175;28;20044;-77
2023/04/12 09:35:06;;;;;;;2.00;1.10;;;;;;;10.90;100.00;99405.56;5061997;28;20055;-76
2023/04/12 09:37:32;;;;;;;2.85;0.85;;;;;;;11.02;100.00;99410.41;5068651;28;20132;-75
2023/04/12 09:40:00;;;;;;;0.20;0.20;;;;;;;11.05;100.00;99413.13;5064282;28;20048;-77
2023/04/12 09:42:27;;;;;;;1.17;0.85;;;;;;;11.05;100.00;99402.03;5066273;28;20098;-74
2023/04/12 09:45:17;;;;;;;2.55;0.88;;;;;;;11.18;100.00;99402.13;5060209;28;20073;-75
2023/04/12 09:47:43;;;;;;;1.63;0.90;;;;;;;11.29;100.00;99391.56;5056683;28;20560;-76
2023/04/12 09:50:19;;;;;;;2.08;1.08;;;;;;;11.33;100.00;99397.78;5069145;28;20124;-75
2023/04/12 09:52:46;;;;;;;3.30;1.77;;;;;;;11.41;100.00;99401.94;5056888;28;20087;-74
2023/04/12 09:55:13;;;;;;;1.88;1.08;;;;;;;11.41;100.00;99390.88;5066325;28;20044;-74
2023/04/12 09:57:41;;;;;;;1.13;1.05;;;;;;;11.42;100.00;99404.28;5061474;28;20059;-76
2023/04/12 10:00:13;;;;;;;6.50;2.17;;;;;;;11.53;100.00;99390.94;5062564;28;20082;-77
2023/04/12 10:02:41;;;;;;;5.55;2.63;;;;;;;11.69;100.00;99406.78;5053535;28;20778;-76
2023/04/12 10:05:12;;;;;;;2.42;1.55;;;;;;;11.71;100.00;99394.03;5054993;28;20114;-75
2023/04/12 10:07:42;;;;;;;1.65;1.13;;;;;;;11.73;100.00;99393.59;5057911;28;20041;-75
2023/04/12 10:10:14;;;;;;;6.93;1.80;;;;;;;11.81;100.00;99400.53;5057138;28;20048;-75
2023/04/12 10:12:44;;;;;;;2.97;1.50;;;;;;;11.77;100.00;99397.06;5058926;28;20040;-75
2023/04/12 10:15:12;;;;;;;3.13;1.65;;;;;;;11.71;100.00;99387.75;5065896;28;20056;-76
2023/04/12 10:17:44;;;;;;;6.93;1.20;;;;;;;11.68;100.00;99388.63;5060291;28;20072;-74
2023/04/12 10:20:12;;;;;;;6.22;2.63;;;;;;;11.70;100.00;99377.84;5055609;28;20131;-75
2023/04/12 10:22:49;;;;;;;7.10;3.40;;;;;;;11.76;100.00;99367.81;5061184;28;20113;-74
2023/04/12 10:25:19;;;;;;;4.05;2.45;;;;;;;11.68;100.00;99372.75;5065949;28;20048;-77
2023/04/12 10:27:46;;;;;;;6.72;2.85;;;;;;;11.79;100.00;99364.16;5065807;28;20055;-75
2023/04/12 10:30:21;;;;;;;2.42;1.10;;;;;;;11.70;100.00;99372.31;5065995;28;20054;-75
2023/04/12 10:33:08;;;;;;;6.07;1.90;;;;;;;11.75;100.00;99372.56;5059315;28;20045;-75
2023/04/12 10:35:47;;;;;;;5.05;2.30;;;;;;;11.82;100.00;99371.59;5058414;28;20045;-75
2023/04/12 10:38:14;;;;;;;6.97;2.92;;;;;;;11.82;100.00;99369.63;5057659;28;20045;-74
2023/04/12 10:41:10;;;;;;;6.47;2.58;;;;;;;11.82;100.00;99369.63;5065506;28;20055;-75
2023/04/12 10:43:37;;;;;;;5.07;2.97;;;;;;;11.76;100.00;99362.25;5060371;28;20040;-76
2023/04/12 10:46:05;;;;;;;7.78;3.33;;;;;;;11.73;100.00;99360.38;5058754;28;20131;-76
2023/04/12 10:48:38;;;;;;;2.63;0.82;;;;;;;11.65;100.00;99368.06;5059867;28;20491;-74
2023/04/12 10:51:24;;;;;;;0.70;0.70;;;;;;;11.70;100.00;99369.53;5057419;28;20131;-75
2023/04/12 10:53:52;;;;;;;3.63;2.17;;;;;;;11.75;100.00;99375.31;5056324;28;20107;-77
2023/04/12 10:56:31;;;;;;;3.30;1.17;;;;;;;11.72;100.00;99367.13;5055312;28;20223;-77
2023/04/12 10:59:00;;;;;;;4.40;2.28;;;;;;;11.75;100.00;99367.00;5062516;28;20072;-74
2023/04/12 11:01:28;;;;;;;9.55;3.25;;;;;;;11.90;100.00;99367.41;5067226;28;20465;-76
2023/04/12 11:04:20;;;;;;;9.05;3.95;;;;;;;12.07;100.00;99371.69;5059834;28;20052;-75
2023/04/12 11:07:03;;;;;;;9.82;3.92;;;;;;;12.22;100.00;99378.38;5062569;28;20036;-76
2023/04/12 11:09:32;;;;;;;1.27;0.90;;;;;;;12.24;100.00;99381.47;5059443;28;20067;-75
2023/04/12 11:12:05;;;;;;;5.97;2.65;;;;;;;12.32;100.00;99391.16;5064675;28;20050;-76
2023/04/12 11:14:50;;;;;;;8.77;3.72;;;;;;;12.28;100.00;99385.72;5063889;28;20052;-77
2023/04/12 11:17:19;;;;;;;3.28;1.67;;;;;;;12.30;100.00;99391.59;5061423;28;20049;-77
2023/04/12 11:19:48;;;;;;;8.63;3.92;;;;;;;12.34;100.00;99391.50;5064992;28;20045;-77
2023/04/12 11:22:16;;;;;;;6.05;2.80;;;;;;;12.27;100.00;99408.34;5054641;28;20048;-76
2023/04/12 11:24:51;;;;;;;4.63;1.52;;;;;;;12.01;100.00;99390.06;5059498;28;20423;-76
2023/04/12 11:27:19;;;;;;;5.68;1.83;;;;;;;11.97;100.00;99386.63;5049736;28;20052;-79
2023/04/12 11:29:54;;;;;;;2.97;1.60;;;;;;;11.87;100.00;99376.59;5055667;28;20093;-75
2023/04/12 11:32:23;;;;;;;2.88;1.75;;;;;;;11.84;100.00;99377.47;5057736;28;20087;-75